Airfield :
LOGIN :

Register | Disclaimer

   EN    FR    IT 

 










Legend :    VFR   Marginal VFR   IFR   Intensive IFR   Very Intensive IFR
Visi :
Ceiling :
>= 8 km
>= 3000ft
5 to 8 km
1000 to 3000 ft
1500m to 5 km
500 to 1000 ft
800 to 1500m
200 to 500 ft
< 800m
< 200 ft
Symbols :   Thunderstorms  Fog  Heavy snow  Heavy precipitations  Wind > 20 kt
SIGMETs :     Misc.  Thunderstorms  Icing  Turbulence  Mountain Waves  Volcanic Ashes






- Airport Elevation : 257 ft
- IATA code : MAN


EGCC - Manchester

CURRENT METAR :
  • 120550Z AUTO VRB03KT 6000 FEW001 17/17 Q1014

EXPIRED METARs :
  • 120520Z AUTO 16003KT 6000 NCD 17/16 Q1014 NOSIG
  • 120450Z AUTO VRB02KT 6000 NCD 17/17 Q1014 NOSIG
  • 120420Z AUTO 21004KT 180V240 9999 NCD 17/16 Q1014 NOSIG
  • 120350Z AUTO VRB02KT 9999 NCD 18/17 Q1013 NOSIG
  • 120320Z AUTO VRB02KT 9999 NCD 18/17 Q1013 NOSIG

TAF TAF EGCC
Valid from the 12 at 06:00 until the 13 at 12:00 UTC


120501Z 1206/1312 VRB03KT CAVOK
TEMPO 1206/1212 6000
PROB30 1206/1207 1200 BR BKN001
PROB40
TEMPO 1213/1224 VRB20G30KT 2000 +TSGR
PROB30
TEMPO 1300/1306 VRB20G30KT 2000 +TSGR
BECMG 1309/1312 04010KT
ATIS : +44 161 499 2324



MET'MAP, your aeronautical weather chart ! - Copyright ORBIFLY December 2007 - Disclaimer

ORBIFLY MET'MAP TEAM :

Programming & Development : Alexandra Zaïnal
Concept & original design : Baudouin d'Aumeries
Assistance for programming : Marc-Olivier Méhu
Technical & hardware support : Manuel Goepfert

Contact : metmap@orbifly.com




SOURCES & CREDITS :

   NOAA